sensor_id;sensor_type;location;lat;lon;timestamp;pressure;altitude;pressure_sealevel;temperature;humidity
36062;BME280;22123;52.412;20.970;2023-12-14T00:02:08;99663.16;;;1.38;100.00
36062;BME280;22123;52.412;20.970;2023-12-14T00:04:34;99629.56;;;1.17;100.00
36062;BME280;22123;52.412;20.970;2023-12-14T00:07:00;99697.41;;;1.51;100.00
36062;BME280;22123;52.412;20.970;2023-12-14T00:09:26;99663.56;;;1.33;100.00
36062;BME280;22123;52.412;20.970;2023-12-14T00:11:52;99646.63;;;1.25;100.00
36062;BME280;22123;52.412;20.970;2023-12-14T00:14:18;99641.69;;;1.20;100.00
36062;BME280;22123;52.412;20.970;2023-12-14T00:16:43;99662.28;;;1.28;100.00
36062;BME280;22123;52.412;20.970;2023-12-14T00:19:09;99693.47;;;1.45;100.00
36062;BME280;22123;52.412;20.970;2023-12-14T00:21:35;99659.75;;;1.26;100.00
36062;BME280;22123;52.412;20.970;2023-12-14T00:24:01;99690.50;;;1.38;100.00
36062;BME280;22123;52.412;20.970;2023-12-14T00:26:27;99693.28;;;1.37;100.00
36062;BME280;22123;52.412;20.970;2023-12-14T00:28:53;99709.13;;;1.48;100.00
36062;BME280;22123;52.412;20.970;2023-12-14T00:31:19;99717.66;;;1.52;100.00
36062;BME280;22123;52.412;20.970;2023-12-14T00:33:45;99701.94;;;1.39;100.00
36062;BME280;22123;52.412;20.970;2023-12-14T00:36:17;99735.84;;;1.56;100.00
36062;BME280;22123;52.412;20.970;2023-12-14T00:38:43;99690.09;;;1.33;100.00
36062;BME280;22123;52.412;20.970;2023-12-14T00:41:09;99683.34;;;1.29;100.00
36062;BME280;22123;52.412;20.970;2023-12-14T00:43:35;99724.78;;;1.51;100.00
36062;BME280;22123;52.412;20.970;2023-12-14T00:46:01;99664.28;;;1.14;100.00
36062;BME280;22123;52.412;20.970;2023-12-14T00:48:26;99723.34;;;1.47;100.00
36062;BME280;22123;52.412;20.970;2023-12-14T00:50:52;99737.09;;;1.52;100.00
36062;BME280;22123;52.412;20.970;2023-12-14T00:53:18;99702.19;;;1.26;100.00
36062;BME280;22123;52.412;20.970;2023-12-14T00:55:44;99708.88;;;1.30;100.00
36062;BME280;22123;52.412;20.970;2023-12-14T00:58:10;99746.00;;;1.51;100.00
36062;BME280;22123;52.412;20.970;2023-12-14T01:00:36;99733.69;;;1.41;100.00
36062;BME280;22123;52.412;20.970;2023-12-14T01:03:02;99732.69;;;1.42;100.00
36062;BME280;22123;52.412;20.970;2023-12-14T01:05:28;99708.44;;;1.25;100.00
36062;BME280;22123;52.412;20.970;2023-12-14T01:07:53;99701.72;;;1.21;100.00
36062;BME280;22123;52.412;20.970;2023-12-14T01:10:19;99702.69;;;1.20;100.00
36062;BME280;22123;52.412;20.970;2023-12-14T01:12:45;99713.69;;;1.15;100.00
36062;BME280;22123;52.412;20.970;2023-12-14T01:15:11;99713.28;;;1.20;100.00
36062;BME280;22123;52.412;20.970;2023-12-14T01:17:37;99723.13;;;1.29;100.00
36062;BME280;22123;52.412;20.970;2023-12-14T01:20:05;99707.03;;;1.21;100.00
36062;BME280;22123;52.412;20.970;2023-12-14T01:22:31;99755.31;;;1.46;100.00
36062;BME280;22123;52.412;20.970;2023-12-14T01:24:57;99721.56;;;1.27;100.00
36062;BME280;22123;52.412;20.970;2023-12-14T01:27:23;99684.84;;;1.01;100.00
36062;BME280;22123;52.412;20.970;2023-12-14T01:29:49;99713.00;;;1.13;100.00
36062;BME280;22123;52.412;20.970;2023-12-14T01:32:15;99717.63;;;1.21;100.00
36062;BME280;22123;52.412;20.970;2023-12-14T01:34:40;99736.81;;;1.34;100.00
36062;BME280;22123;52.412;20.970;2023-12-14T01:37:06;99726.34;;;1.33;100.00
36062;BME280;22123;52.412;20.970;2023-12-14T01:39:33;99709.69;;;1.21;100.00
36062;BME280;22123;52.412;20.970;2023-12-14T01:41:58;99699.00;;;1.11;100.00
36062;BME280;22123;52.412;20.970;2023-12-14T01:44:24;99728.56;;;1.28;100.00
36062;BME280;22123;52.412;20.970;2023-12-14T01:46:50;99760.50;;;1.47;100.00
36062;BME280;22123;52.412;20.970;2023-12-14T01:49:16;99717.63;;;1.21;100.00
36062;BME280;22123;52.412;20.970;2023-12-14T01:51:42;99721.72;;;1.25;100.00
36062;BME280;22123;52.412;20.970;2023-12-14T01:54:08;99746.22;;;1.38;100.00
36062;BME280;22123;52.412;20.970;2023-12-14T01:56:34;99726.06;;;1.26;100.00
36062;BME280;22123;52.412;20.970;2023-12-14T01:59:00;99667.22;;;0.90;100.00
36062;BME280;22123;52.412;20.970;2023-12-14T02:04:03;99700.22;;;1.07;100.00
36062;BME280;22123;52.412;20.970;2023-12-14T02:06:30;99653.06;;;0.80;100.00
36062;BME280;22123;52.412;20.970;2023-12-14T02:08:56;99737.22;;;1.30;100.00
36062;BME280;22123;52.412;20.970;2023-12-14T02:11:23;99717.75;;;1.19;100.00
36062;BME280;22123;52.412;20.970;2023-12-14T02:13:49;99721.13;;;1.21;100.00
36062;BME280;22123;52.412;20.970;2023-12-14T02:16:15;99692.66;;;1.02;100.00
36062;BME280;22123;52.412;20.970;2023-12-14T02:18:41;99699.41;;;1.07;100.00
36062;BME280;22123;52.412;20.970;2023-12-14T02:21:10;99712.59;;;1.18;100.00
36062;BME280;22123;52.412;20.970;2023-12-14T02:23:46;99623.50;;;0.63;100.00
36062;BME280;22123;52.412;20.970;2023-12-14T02:26:13;99738.25;;;1.38;100.00
36062;BME280;22123;52.412;20.970;2023-12-14T02:28:40;99710.50;;;1.21;100.00
36062;BME280;22123;52.412;20.970;2023-12-14T02:31:06;99698.75;;;1.14;100.00
36062;BME280;22123;52.412;20.970;2023-12-14T02:33:32;99661.66;;;0.93;100.00
36062;BME280;22123;52.412;20.970;2023-12-14T02:35:59;99732.13;;;1.38;100.00
36062;BME280;22123;52.412;20.970;2023-12-14T02:38:32;99684.47;;;1.06;100.00
36062;BME280;22123;52.412;20.970;2023-12-14T02:40:58;99720.41;;;1.19;100.00
36062;BME280;22123;52.412;20.970;2023-12-14T02:43:24;99677.16;;;0.98;100.00
36062;BME280;22123;52.412;20.970;2023-12-14T02:45:50;99683.28;;;0.98;100.00
36062;BME280;22123;52.412;20.970;2023-12-14T02:48:16;99735.78;;;1.26;100.00
36062;BME280;22123;52.412;20.970;2023-12-14T02:50:42;99689.06;;;1.03;100.00
36062;BME280;22123;52.412;20.970;2023-12-14T02:53:08;99715.38;;;1.16;100.00
36062;BME280;22123;52.412;20.970;2023-12-14T02:55:34;99685.25;;;0.96;100.00
36062;BME280;22123;52.412;20.970;2023-12-14T02:57:59;99697.16;;;1.02;100.00
36062;BME280;22123;52.412;20.970;2023-12-14T03:00:25;99686.47;;;0.92;100.00
36062;BME280;22123;52.412;20.970;2023-12-14T03:02:52;99707.47;;;1.05;100.00
36062;BME280;22123;52.412;20.970;2023-12-14T03:05:17;99667.41;;;0.77;100.00
36062;BME280;22123;52.412;20.970;2023-12-14T03:07:46;99694.00;;;0.87;100.00
36062;BME280;22123;52.412;20.970;2023-12-14T03:10:12;99726.50;;;1.10;100.00
36062;BME280;22123;52.412;20.970;2023-12-14T03:12:38;99690.03;;;0.81;100.00
36062;BME280;22123;52.412;20.970;2023-12-14T03:15:04;99727.41;;;0.99;100.00
36062;BME280;22123;52.412;20.970;2023-12-14T03:17:30;99736.91;;;1.02;100.00
36062;BME280;22123;52.412;20.970;2023-12-14T03:19:56;99640.72;;;0.48;100.00
36062;BME280;22123;52.412;20.970;2023-12-14T03:22:22;99662.22;;;0.55;100.00
36062;BME280;22123;52.412;20.970;2023-12-14T03:24:48;99630.59;;;0.42;100.00
36062;BME280;22123;52.412;20.970;2023-12-14T03:27:13;99721.88;;;0.91;100.00
36062;BME280;22123;52.412;20.970;2023-12-14T03:29:39;99699.22;;;0.77;100.00
36062;BME280;22123;52.412;20.970;2023-12-14T03:32:05;99726.97;;;0.94;100.00
36062;BME280;22123;52.412;20.970;2023-12-14T03:34:31;99729.00;;;0.91;100.00
36062;BME280;22123;52.412;20.970;2023-12-14T03:36:57;99734.78;;;0.96;100.00
36062;BME280;22123;52.412;20.970;2023-12-14T03:39:23;99746.22;;;0.96;100.00
36062;BME280;22123;52.412;20.970;2023-12-14T03:41:49;99702.72;;;0.66;100.00
36062;BME280;22123;52.412;20.970;2023-12-14T03:44:15;99758.50;;;0.97;100.00
36062;BME280;22123;52.412;20.970;2023-12-14T03:46:41;99741.44;;;0.90;100.00
36062;BME280;22123;52.412;20.970;2023-12-14T03:49:06;99701.91;;;0.66;100.00
36062;BME280;22123;52.412;20.970;2023-12-14T03:51:32;99731.22;;;0.85;100.00
36062;BME280;22123;52.412;20.970;2023-12-14T03:53:58;99778.66;;;1.10;100.00
36062;BME280;22123;52.412;20.970;2023-12-14T03:56:24;99735.22;;;0.80;100.00
36062;BME280;22123;52.412;20.970;2023-12-14T03:58:50;99739.16;;;0.85;100.00
36062;BME280;22123;52.412;20.970;2023-12-14T04:01:17;99783.44;;;1.16;100.00
36062;BME280;22123;52.412;20.970;2023-12-14T04:03:43;99771.94;;;1.06;100.00
36062;BME280;22123;52.412;20.970;2023-12-14T04:06:09;99753.56;;;0.93;100.00
36062;BME280;22123;52.412;20.970;2023-12-14T04:08:35;99793.81;;;1.19;100.00
36062;BME280;22123;52.412;20.970;2023-12-14T04:11:01;99779.53;;;1.10;100.00
36062;BME280;22123;52.412;20.970;2023-12-14T04:13:27;99767.16;;;0.99;100.00
36062;BME280;22123;52.412;20.970;2023-12-14T04:15:53;99750.81;;;0.94;100.00
36062;BME280;22123;52.412;20.970;2023-12-14T04:18:19;99755.25;;;0.94;100.00
36062;BME280;22123;52.412;20.970;2023-12-14T04:20:45;99790.25;;;1.09;100.00
36062;BME280;22123;52.412;20.970;2023-12-14T04:23:11;99757.06;;;0.93;100.00
36062;BME280;22123;52.412;20.970;2023-12-14T04:25:36;99700.59;;;0.60;100.00
36062;BME280;22123;52.412;20.970;2023-12-14T04:28:02;99711.19;;;0.60;100.00
36062;BME280;22123;52.412;20.970;2023-12-14T04:30:28;99765.03;;;0.93;100.00
36062;BME280;22123;52.412;20.970;2023-12-14T04:32:54;99767.03;;;1.01;100.00
36062;BME280;22123;52.412;20.970;2023-12-14T04:35:20;99767.75;;;1.03;100.00
36062;BME280;22123;52.412;20.970;2023-12-14T04:37:46;99755.38;;;0.92;100.00
36062;BME280;22123;52.412;20.970;2023-12-14T04:40:12;99806.81;;;1.22;100.00
36062;BME280;22123;52.412;20.970;2023-12-14T04:42:38;99782.06;;;1.12;100.00
36062;BME280;22123;52.412;20.970;2023-12-14T04:45:04;99744.56;;;0.84;100.00
36062;BME280;22123;52.412;20.970;2023-12-14T04:47:30;99761.97;;;0.98;100.00
36062;BME280;22123;52.412;20.970;2023-12-14T04:49:56;99722.03;;;0.57;100.00
36062;BME280;22123;52.412;20.970;2023-12-14T04:52:22;99771.03;;;0.95;100.00
36062;BME280;22123;52.412;20.970;2023-12-14T04:54:48;99772.25;;;0.91;100.00
36062;BME280;22123;52.412;20.970;2023-12-14T04:57:13;99816.13;;;1.16;100.00
36062;BME280;22123;52.412;20.970;2023-12-14T04:59:42;99814.44;;;1.15;100.00
36062;BME280;22123;52.412;20.970;2023-12-14T05:02:08;99799.31;;;1.06;100.00
36062;BME280;22123;52.412;20.970;2023-12-14T05:04:34;99781.88;;;0.92;100.00
36062;BME280;22123;52.412;20.970;2023-12-14T05:07:00;99848.47;;;1.31;100.00
36062;BME280;22123;52.412;20.970;2023-12-14T05:09:26;99778.16;;;0.95;100.00
36062;BME280;22123;52.412;20.970;2023-12-14T05:11:52;99798.25;;;0.97;100.00
36062;BME280;22123;52.412;20.970;2023-12-14T05:14:18;99837.78;;;1.21;100.00
36062;BME280;22123;52.412;20.970;2023-12-14T05:16:43;99858.00;;;1.34;100.00
36062;BME280;22123;52.412;20.970;2023-12-14T05:19:09;99837.78;;;1.21;100.00
36062;BME280;22123;52.412;20.970;2023-12-14T05:21:35;99834.34;;;1.10;100.00
36062;BME280;22123;52.412;20.970;2023-12-14T05:24:01;99787.22;;;0.81;100.00
36062;BME280;22123;52.412;20.970;2023-12-14T05:26:27;99794.47;;;0.79;100.00
36062;BME280;22123;52.412;20.970;2023-12-14T05:28:53;99836.28;;;1.08;100.00
36062;BME280;22123;52.412;20.970;2023-12-14T05:31:19;99851.69;;;1.14;100.00
36062;BME280;22123;52.412;20.970;2023-12-14T05:33:45;99854.94;;;1.17;100.00
36062;BME280;22123;52.412;20.970;2023-12-14T05:36:11;99845.34;;;1.05;100.00
36062;BME280;22123;52.412;20.970;2023-12-14T05:38:40;99894.44;;;1.32;100.00
36062;BME280;22123;52.412;20.970;2023-12-14T05:41:06;99844.16;;;0.98;100.00
36062;BME280;22123;52.412;20.970;2023-12-14T05:43:32;99886.63;;;1.19;100.00
36062;BME280;22123;52.412;20.970;2023-12-14T05:45:58;99890.69;;;1.23;100.00
36062;BME280;22123;52.412;20.970;2023-12-14T05:48:24;99883.25;;;1.17;100.00
36062;BME280;22123;52.412;20.970;2023-12-14T05:50:51;99877.25;;;1.15;100.00
36062;BME280;22123;52.412;20.970;2023-12-14T05:53:17;99886.03;;;1.15;100.00
36062;BME280;22123;52.412;20.970;2023-12-14T05:55:43;99909.09;;;1.36;100.00
36062;BME280;22123;52.412;20.970;2023-12-14T05:58:08;99887.72;;;1.16;100.00
36062;BME280;22123;52.412;20.970;2023-12-14T06:00:35;99924.31;;;1.34;100.00
36062;BME280;22123;52.412;20.970;2023-12-14T06:03:01;99897.13;;;1.09;100.00
36062;BME280;22123;52.412;20.970;2023-12-14T06:05:27;99884.28;;;1.04;100.00
36062;BME280;22123;52.412;20.970;2023-12-14T06:07:54;99876.78;;;0.98;100.00
36062;BME280;22123;52.412;20.970;2023-12-14T06:10:19;99924.06;;;1.26;100.00
36062;BME280;22123;52.412;20.970;2023-12-14T06:12:45;99888.34;;;1.09;100.00
36062;BME280;22123;52.412;20.970;2023-12-14T06:15:11;99898.44;;;1.15;100.00
36062;BME280;22123;52.412;20.970;2023-12-14T06:17:37;99907.25;;;1.15;100.00
36062;BME280;22123;52.412;20.970;2023-12-14T06:20:03;99903.28;;;1.10;100.00
36062;BME280;22123;52.412;20.970;2023-12-14T06:22:32;99939.72;;;1.29;100.00
36062;BME280;22123;52.412;20.970;2023-12-14T06:24:58;99900.63;;;1.10;100.00
36062;BME280;22123;52.412;20.970;2023-12-14T06:27:24;99911.97;;;1.12;100.00
36062;BME280;22123;52.412;20.970;2023-12-14T06:29:50;99952.84;;;1.42;100.00
36062;BME280;22123;52.412;20.970;2023-12-14T06:32:16;99919.78;;;1.13;100.00
36062;BME280;22123;52.412;20.970;2023-12-14T06:34:41;99934.69;;;1.26;100.00
36062;BME280;22123;52.412;20.970;2023-12-14T06:37:07;99953.25;;;1.26;100.00
36062;BME280;22123;52.412;20.970;2023-12-14T06:39:33;99935.69;;;1.13;100.00
36062;BME280;22123;52.412;20.970;2023-12-14T06:41:59;99967.25;;;1.28;100.00
36062;BME280;22123;52.412;20.970;2023-12-14T06:44:25;99981.56;;;1.36;100.00
36062;BME280;22123;52.412;20.970;2023-12-14T06:46:51;99986.00;;;1.36;100.00
36062;BME280;22123;52.412;20.970;2023-12-14T06:49:17;99948.09;;;1.13;100.00
36062;BME280;22123;52.412;20.970;2023-12-14T06:51:43;99954.38;;;1.12;100.00
36062;BME280;22123;52.412;20.970;2023-12-14T06:54:08;99957.88;;;1.12;100.00
36062;BME280;22123;52.412;20.970;2023-12-14T06:56:36;99965.19;;;1.20;100.00
36062;BME280;22123;52.412;20.970;2023-12-14T06:59:02;99907.34;;;0.81;100.00
36062;BME280;22123;52.412;20.970;2023-12-14T07:01:28;99956.28;;;1.10;100.00
36062;BME280;22123;52.412;20.970;2023-12-14T07:03:54;99937.06;;;0.96;100.00
36062;BME280;22123;52.412;20.970;2023-12-14T07:06:20;99959.56;;;1.13;100.00
36062;BME280;22123;52.412;20.970;2023-12-14T07:08:46;99931.88;;;0.95;100.00
36062;BME280;22123;52.412;20.970;2023-12-14T07:11:11;99951.72;;;1.12;100.00
36062;BME280;22123;52.412;20.970;2023-12-14T07:13:38;99960.13;;;1.17;100.00
36062;BME280;22123;52.412;20.970;2023-12-14T07:16:08;99960.13;;;1.17;100.00
36062;BME280;22123;52.412;20.970;2023-12-14T07:18:35;99938.50;;;1.00;100.00
36062;BME280;22123;52.412;20.970;2023-12-14T07:21:04;99919.44;;;0.95;100.00
36062;BME280;22123;52.412;20.970;2023-12-14T07:23:30;100007.47;;;1.44;100.00
36062;BME280;22123;52.412;20.970;2023-12-14T07:25:56;99875.44;;;0.60;100.00
36062;BME280;22123;52.412;20.970;2023-12-14T07:28:22;100010.50;;;1.39;100.00
36062;BME280;22123;52.412;20.970;2023-12-14T07:30:48;99953.19;;;1.04;100.00
36062;BME280;22123;52.412;20.970;2023-12-14T07:33:15;99987.59;;;1.27;100.00
36062;BME280;22123;52.412;20.970;2023-12-14T07:35:41;100018.06;;;1.44;100.00
36062;BME280;22123;52.412;20.970;2023-12-14T07:38:08;99999.19;;;1.26;100.00
36062;BME280;22123;52.412;20.970;2023-12-14T07:40:34;99983.03;;;1.18;100.00
36062;BME280;22123;52.412;20.970;2023-12-14T07:43:00;99987.53;;;1.17;100.00
36062;BME280;22123;52.412;20.970;2023-12-14T07:45:26;99993.16;;;1.24;100.00
36062;BME280;22123;52.412;20.970;2023-12-14T07:47:51;100010.75;;;1.36;100.00
36062;BME280;22123;52.412;20.970;2023-12-14T07:50:17;99990.88;;;1.19;100.00
36062;BME280;22123;52.412;20.970;2023-12-14T07:52:43;100031.06;;;1.47;100.00
36062;BME280;22123;52.412;20.970;2023-12-14T07:55:09;99986.31;;;1.10;100.00
36062;BME280;22123;52.412;20.970;2023-12-14T07:57:35;100044.47;;;1.46;100.00
36062;BME280;22123;52.412;20.970;2023-12-14T08:00:01;100011.59;;;1.26;100.00
36062;BME280;22123;52.412;20.970;2023-12-14T08:02:27;100018.34;;;1.30;100.00
36062;BME280;22123;52.412;20.970;2023-12-14T08:04:53;100017.75;;;1.26;100.00
36062;BME280;22123;52.412;20.970;2023-12-14T08:07:19;100012.91;;;1.20;100.00
36062;BME280;22123;52.412;20.970;2023-12-14T08:09:44;100059.81;;;1.42;100.00
36062;BME280;22123;52.412;20.970;2023-12-14T08:12:10;100045.34;;;1.35;100.00
36062;BME280;22123;52.412;20.970;2023-12-14T08:14:36;100034.13;;;1.20;100.00
36062;BME280;22123;52.412;20.970;2023-12-14T08:17:02;100010.31;;;1.09;100.00
36062;BME280;22123;52.412;20.970;2023-12-14T08:19:28;100039.09;;;1.25;100.00
36062;BME280;22123;52.412;20.970;2023-12-14T08:21:54;100073.19;;;1.41;100.00
36062;BME280;22123;52.412;20.970;2023-12-14T08:24:20;100060.16;;;1.37;100.00
36062;BME280;22123;52.412;20.970;2023-12-14T08:26:46;100034.63;;;1.25;100.00
36062;BME280;22123;52.412;20.970;2023-12-14T08:29:12;100019.94;;;1.10;100.00
36062;BME280;22123;52.412;20.970;2023-12-14T08:31:38;100036.78;;;1.31;100.00
36062;BME280;22123;52.412;20.970;2023-12-14T08:34:03;100051.13;;;1.40;100.00
36062;BME280;22123;52.412;20.970;2023-12-14T08:36:29;100084.97;;;1.59;100.00
36062;BME280;22123;52.412;20.970;2023-12-14T08:38:55;100069.09;;;1.48;100.00
36062;BME280;22123;52.412;20.970;2023-12-14T08:41:21;100072.81;;;1.56;100.00
36062;BME280;22123;52.412;20.970;2023-12-14T08:43:47;100077.72;;;1.61;100.00
36062;BME280;22123;52.412;20.970;2023-12-14T08:46:13;100087.13;;;1.65;100.00
36062;BME280;22123;52.412;20.970;2023-12-14T08:48:39;100066.75;;;1.54;100.00
36062;BME280;22123;52.412;20.970;2023-12-14T08:51:05;100047.25;;;1.44;100.00
36062;BME280;22123;52.412;20.970;2023-12-14T08:53:31;100055.69;;;1.49;100.00
36062;BME280;22123;52.412;20.970;2023-12-14T08:55:57;100101.47;;;1.74;100.00
36062;BME280;22123;52.412;20.970;2023-12-14T08:58:23;99994.88;;;1.02;100.00
36062;BME280;22123;52.412;20.970;2023-12-14T09:00:49;100115.81;;;1.71;100.00
36062;BME280;22123;52.412;20.970;2023-12-14T09:03:15;100091.72;;;1.63;100.00
36062;BME280;22123;52.412;20.970;2023-12-14T09:05:40;100098.94;;;1.72;100.00
36062;BME280;22123;52.412;20.970;2023-12-14T09:08:06;100111.47;;;1.70;100.00
36062;BME280;22123;52.412;20.970;2023-12-14T09:10:32;100097.63;;;1.67;100.00
36062;BME280;22123;52.412;20.970;2023-12-14T09:12:58;100100.53;;;1.64;100.00
36062;BME280;22123;52.412;20.970;2023-12-14T09:15:24;100108.13;;;1.68;100.00
36062;BME280;22123;52.412;20.970;2023-12-14T09:17:50;100091.97;;;1.60;100.00
36062;BME280;22123;52.412;20.970;2023-12-14T09:20:16;100101.00;;;1.58;100.00
36062;BME280;22123;52.412;20.970;2023-12-14T09:22:41;100111.03;;;1.65;100.00
36062;BME280;22123;52.412;20.970;2023-12-14T09:25:08;100103.78;;;1.56;100.00
36062;BME280;22123;52.412;20.970;2023-12-14T09:27:33;100151.84;;;1.85;100.00
36062;BME280;22123;52.412;20.970;2023-12-14T09:29:59;100096.19;;;1.51;100.00
36062;BME280;22123;52.412;20.970;2023-12-14T09:32:25;100109.44;;;1.63;100.00
36062;BME280;22123;52.412;20.970;2023-12-14T09:34:51;100112.94;;;1.63;100.00
36062;BME280;22123;52.412;20.970;2023-12-14T09:37:17;100081.59;;;1.46;100.00
36062;BME280;22123;52.412;20.970;2023-12-14T09:39:43;100125.59;;;1.71;100.00
36062;BME280;22123;52.412;20.970;2023-12-14T09:42:09;100135.59;;;1.79;100.00
36062;BME280;22123;52.412;20.970;2023-12-14T09:44:35;100156.94;;;1.88;100.00
36062;BME280;22123;52.412;20.970;2023-12-14T09:47:02;100127.41;;;1.70;100.00
36062;BME280;22123;52.412;20.970;2023-12-14T09:49:30;100130.78;;;1.72;100.00
36062;BME280;22123;52.412;20.970;2023-12-14T09:51:56;100158.47;;;1.91;100.00
36062;BME280;22123;52.412;20.970;2023-12-14T09:54:22;100139.22;;;1.78;100.00
36062;BME280;22123;52.412;20.970;2023-12-14T09:56:49;100120.41;;;1.69;100.00
36062;BME280;22123;52.412;20.970;2023-12-14T09:59:15;100157.06;;;1.87;100.00
36062;BME280;22123;52.412;20.970;2023-12-14T10:01:41;100119.19;;;1.62;100.00
36062;BME280;22123;52.412;20.970;2023-12-14T10:04:09;100133.09;;;1.66;100.00
36062;BME280;22123;52.412;20.970;2023-12-14T10:06:36;100123.81;;;1.60;100.00
36062;BME280;22123;52.412;20.970;2023-12-14T10:09:02;100168.41;;;1.89;100.00
36062;BME280;22123;52.412;20.970;2023-12-14T10:11:28;100127.06;;;1.64;100.00
36062;BME280;22123;52.412;20.970;2023-12-14T10:13:53;100170.56;;;1.84;100.00
36062;BME280;22123;52.412;20.970;2023-12-14T10:16:30;100115.59;;;1.52;100.00
36062;BME280;22123;52.412;20.970;2023-12-14T10:18:57;100128.03;;;1.63;100.00
36062;BME280;22123;52.412;20.970;2023-12-14T10:21:27;100128.97;;;1.62;100.00
36062;BME280;22123;52.412;20.970;2023-12-14T10:23:57;100136.22;;;1.71;100.00
36062;BME280;22123;52.412;20.970;2023-12-14T10:26:23;100157.53;;;1.92;100.00
36062;BME280;22123;52.412;20.970;2023-12-14T10:28:50;100128.59;;;1.78;100.00
36062;BME280;22123;52.412;20.970;2023-12-14T10:31:17;100146.19;;;1.90;100.00
36062;BME280;22123;52.412;20.970;2023-12-14T10:33:42;100126.91;;;1.77;100.00
36062;BME280;22123;52.412;20.970;2023-12-14T10:36:09;100133.91;;;1.78;100.00
36062;BME280;22123;52.412;20.970;2023-12-14T10:38:36;100152.22;;;1.81;100.00
36062;BME280;22123;52.412;20.970;2023-12-14T10:41:03;100174.91;;;1.96;100.00
36062;BME280;22123;52.412;20.970;2023-12-14T10:43:29;100146.47;;;1.76;100.00
36062;BME280;22123;52.412;20.970;2023-12-14T10:45:55;100158.41;;;1.81;100.00
36062;BME280;22123;52.412;20.970;2023-12-14T10:48:21;100148.00;;;1.78;100.00
36062;BME280;22123;52.412;20.970;2023-12-14T10:50:48;100184.63;;;2.07;100.00
36062;BME280;22123;52.412;20.970;2023-12-14T10:53:15;100115.25;;;1.45;100.00
36062;BME280;22123;52.412;20.970;2023-12-14T10:55:44;100158.63;;;1.78;100.00
36062;BME280;22123;52.412;20.970;2023-12-14T10:58:11;100141.63;;;1.69;100.00
36062;BME280;22123;52.412;20.970;2023-12-14T11:00:37;100191.78;;;1.95;100.00
36062;BME280;22123;52.412;20.970;2023-12-14T11:03:06;100164.31;;;1.73;100.00
36062;BME280;22123;52.412;20.970;2023-12-14T11:05:33;100146.47;;;1.53;100.00
36062;BME280;22123;52.412;20.970;2023-12-14T11:08:04;100183.63;;;1.76;100.00
36062;BME280;22123;52.412;20.970;2023-12-14T11:10:43;100168.66;;;1.63;100.00
36062;BME280;22123;52.412;20.970;2023-12-14T11:13:21;100209.44;;;1.85;100.00
36062;BME280;22123;52.412;20.970;2023-12-14T11:15:51;100217.00;;;1.89;100.00
36062;BME280;22123;52.412;20.970;2023-12-14T11:25:56;100193.88;;;1.69;100.00
36062;BME280;22123;52.412;20.970;2023-12-14T11:28:22;100179.41;;;1.62;100.00
36062;BME280;22123;52.412;20.970;2023-12-14T11:30:48;100196.66;;;1.67;100.00
36062;BME280;22123;52.412;20.970;2023-12-14T11:33:15;100230.66;;;1.85;100.00
36062;BME280;22123;52.412;20.970;2023-12-14T11:35:42;100224.63;;;1.83;100.00
36062;BME280;22123;52.412;20.970;2023-12-14T11:38:08;100215.94;;;1.81;100.00
36062;BME280;22123;52.412;20.970;2023-12-14T11:40:33;100214.16;;;1.81;100.00
36062;BME280;22123;52.412;20.970;2023-12-14T11:42:59;100210.03;;;1.77;100.00
36062;BME280;22123;52.412;20.970;2023-12-14T11:45:26;100233.06;;;1.88;100.00
36062;BME280;22123;52.412;20.970;2023-12-14T11:47:52;100244.31;;;1.91;100.00
36062;BME280;22123;52.412;20.970;2023-12-14T11:50:18;100212.09;;;1.73;100.00
36062;BME280;22123;52.412;20.970;2023-12-14T11:52:44;100219.78;;;1.77;100.00
36062;BME280;22123;52.412;20.970;2023-12-14T11:55:10;100226.81;;;1.78;100.00
36062;BME280;22123;52.412;20.970;2023-12-14T11:57:37;100207.03;;;1.70;100.00
36062;BME280;22123;52.412;20.970;2023-12-14T12:00:03;100233.31;;;1.85;100.00
36062;BME280;22123;52.412;20.970;2023-12-14T12:02:29;100257.44;;;2.04;100.00
36062;BME280;22123;52.412;20.970;2023-12-14T12:04:55;100222.56;;;1.75;100.00
36062;BME280;22123;52.412;20.970;2023-12-14T12:07:21;100148.66;;;1.36;100.00
36062;BME280;22123;52.412;20.970;2023-12-14T12:09:47;100243.56;;;1.89;100.00
36062;BME280;22123;52.412;20.970;2023-12-14T12:12:13;100264.22;;;1.97;100.00
36062;BME280;22123;52.412;20.970;2023-12-14T12:14:39;100247.53;;;1.84;100.00
36062;BME280;22123;52.412;20.970;2023-12-14T12:17:06;100246.97;;;1.80;100.00
36062;BME280;22123;52.412;20.970;2023-12-14T12:19:36;100184.59;;;1.41;100.00
36062;BME280;22123;52.412;20.970;2023-12-14T12:22:03;100270.97;;;1.90;100.00
36062;BME280;22123;52.412;20.970;2023-12-14T12:24:29;100199.16;;;1.46;100.00
36062;BME280;22123;52.412;20.970;2023-12-14T12:26:55;100203.66;;;1.46;100.00
36062;BME280;22123;52.412;20.970;2023-12-14T12:29:22;100254.06;;;1.68;100.00
36062;BME280;22123;52.412;20.970;2023-12-14T12:31:48;100238.72;;;1.61;100.00
36062;BME280;22123;52.412;20.970;2023-12-14T12:34:14;100262.50;;;1.62;100.00
36062;BME280;22123;52.412;20.970;2023-12-14T12:36:40;100262.03;;;1.57;100.00
36062;BME280;22123;52.412;20.970;2023-12-14T12:39:06;100264.19;;;1.63;100.00
36062;BME280;22123;52.412;20.970;2023-12-14T12:41:32;100223.41;;;1.42;100.00
36062;BME280;22123;52.412;20.970;2023-12-14T12:43:58;100265.38;;;1.59;100.00
36062;BME280;22123;52.412;20.970;2023-12-14T12:46:24;100260.31;;;1.56;100.00
36062;BME280;22123;52.412;20.970;2023-12-14T12:48:50;100273.00;;;1.52;100.00
36062;BME280;22123;52.412;20.970;2023-12-14T12:51:16;100264.94;;;1.54;100.00